createdAt,value
2023-04-15T00:00:59.884Z,11.60
2023-04-15T00:03:27.003Z,11.60
2023-04-15T00:05:53.953Z,11.60
2023-04-15T00:08:20.655Z,11.60
2023-04-15T00:10:47.235Z,11.60
2023-04-15T00:13:13.845Z,11.60
2023-04-15T00:15:41.016Z,11.60
2023-04-15T00:18:08.316Z,11.60
2023-04-15T00:20:35.864Z,11.50
2023-04-15T00:23:04.299Z,11.50
2023-04-15T00:25:31.223Z,11.50
2023-04-15T00:27:57.847Z,11.50
2023-04-15T00:30:25.761Z,11.50
2023-04-15T00:32:52.725Z,11.50
2023-04-15T00:35:19.419Z,11.50
2023-04-15T00:37:46.302Z,11.50
2023-04-15T00:40:13.985Z,11.50
2023-04-15T00:42:41.284Z,11.50
2023-04-15T00:45:08.984Z,11.40
2023-04-15T00:47:37.879Z,11.50
2023-04-15T00:50:05.167Z,11.40
2023-04-15T00:52:32.109Z,11.40
2023-04-15T00:54:59.575Z,11.40
2023-04-15T00:57:27.266Z,11.40
2023-04-15T00:59:54.452Z,11.40
2023-04-15T01:02:21.529Z,11.40
2023-04-15T01:04:48.586Z,11.40
2023-04-15T01:07:15.347Z,11.40
2023-04-15T01:09:42.497Z,11.30
2023-04-15T01:12:12.792Z,11.30
2023-04-15T01:14:39.480Z,11.30
2023-04-15T01:17:06.108Z,11.30
2023-04-15T01:19:32.882Z,11.30
2023-04-15T01:21:59.547Z,11.30
2023-04-15T01:24:27.924Z,11.30
2023-04-15T01:26:54.552Z,11.30
2023-04-15T01:29:21.534Z,11.30
2023-04-15T01:31:52.348Z,11.30
2023-04-15T01:34:19.616Z,11.30
2023-04-15T01:36:46.443Z,11.30
2023-04-15T01:39:13.458Z,11.20
2023-04-15T01:41:40.936Z,11.20
2023-04-15T01:44:08.136Z,11.20
2023-04-15T01:46:35.877Z,11.20
2023-04-15T01:49:02.827Z,11.20
2023-04-15T01:51:29.557Z,11.20
2023-04-15T01:53:59.229Z,11.20
2023-04-15T01:56:26.691Z,11.20
2023-04-15T01:58:53.570Z,11.20
2023-04-15T02:01:20.914Z,11.20
2023-04-15T02:03:48.117Z,11.10
2023-04-15T02:06:15.402Z,11.10
2023-04-15T02:08:42.092Z,11.10
2023-04-15T02:11:09.391Z,11.10
2023-04-15T02:13:36.329Z,11.10
2023-04-15T02:16:04.437Z,11.10
2023-04-15T02:18:31.098Z,11.10
2023-04-15T02:20:58.679Z,11.10
2023-04-15T02:23:25.685Z,11.10
2023-04-15T02:25:53.380Z,11.10
2023-04-15T02:28:21.835Z,11.10
2023-04-15T02:30:52.901Z,11.10
2023-04-15T02:33:20.250Z,11.10
2023-04-15T02:35:47.379Z,11.00
2023-04-15T02:38:14.929Z,11.00
2023-04-15T02:40:41.610Z,11.00
2023-04-15T02:43:08.289Z,11.00
2023-04-15T02:45:35.028Z,11.00
2023-04-15T02:48:06.242Z,11.00
2023-04-15T02:50:33.512Z,11.00
2023-04-15T02:53:01.568Z,11.00
2023-04-15T02:55:29.083Z,11.00
2023-04-15T02:57:55.969Z,11.00
2023-04-15T03:00:25.400Z,11.00
2023-04-15T03:02:56.700Z,11.00
2023-04-15T03:05:26.562Z,11.00
2023-04-15T03:07:53.620Z,11.00
2023-04-15T03:10:21.374Z,11.00
2023-04-15T03:12:48.352Z,11.00
2023-04-15T03:15:15.129Z,10.90
2023-04-15T03:17:41.781Z,10.90
2023-04-15T03:20:08.844Z,10.90
2023-04-15T03:22:35.524Z,10.90
2023-04-15T03:25:02.191Z,10.90
2023-04-15T03:27:28.832Z,10.90
2023-04-15T03:29:56.878Z,10.90
2023-04-15T03:32:23.583Z,10.90
2023-04-15T03:34:50.357Z,10.90
2023-04-15T03:37:16.984Z,10.90
2023-04-15T03:39:43.543Z,10.90
2023-04-15T03:42:10.148Z,10.90
2023-04-15T03:44:37.245Z,10.90
2023-04-15T03:47:03.951Z,10.90
2023-04-15T03:49:30.556Z,10.90
2023-04-15T03:51:57.502Z,10.80
2023-04-15T03:54:24.153Z,10.90
2023-04-15T03:56:50.822Z,10.80
2023-04-15T03:59:17.435Z,10.80
2023-04-15T04:01:44.103Z,10.80
2023-04-15T04:04:11.124Z,10.80
2023-04-15T04:06:37.855Z,10.80
2023-04-15T04:09:04.430Z,10.80
2023-04-15T04:11:31.810Z,10.80
2023-04-15T04:13:58.600Z,10.80
2023-04-15T04:16:25.520Z,10.80
2023-04-15T04:18:52.122Z,10.80
2023-04-15T04:21:18.910Z,10.80
2023-04-15T04:23:45.594Z,10.80
2023-04-15T04:26:12.197Z,10.80
2023-04-15T04:28:40.642Z,10.80
2023-04-15T04:31:07.764Z,10.70
2023-04-15T04:33:34.579Z,10.70
2023-04-15T04:36:01.531Z,10.70
2023-04-15T04:38:28.179Z,10.70
2023-04-15T04:40:54.853Z,10.70
2023-04-15T04:43:21.503Z,10.70
2023-04-15T04:45:48.143Z,10.70
2023-04-15T04:48:14.819Z,10.70
2023-04-15T04:50:41.997Z,10.70
2023-04-15T04:53:09.022Z,10.70
2023-04-15T04:55:37.136Z,10.70
2023-04-15T04:58:03.781Z,10.70
2023-04-15T05:00:30.474Z,10.70
2023-04-15T05:02:57.380Z,10.70
2023-04-15T05:05:24.180Z,10.70
2023-04-15T05:07:51.278Z,10.70
2023-04-15T05:10:18.365Z,10.60
2023-04-15T05:12:45.062Z,10.60
2023-04-15T05:15:12.308Z,10.60
2023-04-15T05:17:39.023Z,10.60
2023-04-15T05:20:06.301Z,10.60
2023-04-15T05:22:33.185Z,10.60
2023-04-15T05:24:59.927Z,10.60
2023-04-15T05:27:26.634Z,10.60
2023-04-15T05:29:53.248Z,10.60
2023-04-15T05:32:19.939Z,10.60
2023-04-15T05:34:47.256Z,10.60
2023-04-15T05:37:13.963Z,10.60
2023-04-15T05:39:40.560Z,10.60
2023-04-15T05:42:07.677Z,10.60
2023-04-15T05:44:34.710Z,10.60
2023-04-15T05:47:01.592Z,10.70
2023-04-15T05:49:28.246Z,10.70
2023-04-15T05:51:54.859Z,10.70
2023-04-15T05:54:22.648Z,10.70
2023-04-15T05:56:49.474Z,10.70
2023-04-15T05:59:16.136Z,10.70
2023-04-15T06:01:43.019Z,10.70
2023-04-15T06:04:09.928Z,10.70
2023-04-15T06:06:36.640Z,10.70
2023-04-15T06:09:03.370Z,10.70
2023-04-15T06:11:30.523Z,10.70
2023-04-15T06:13:57.340Z,10.70
2023-04-15T06:16:23.990Z,10.70
2023-04-15T06:18:50.577Z,10.70
2023-04-15T06:21:17.246Z,10.70
2023-04-15T06:23:43.981Z,10.80
2023-04-15T06:26:10.589Z,10.70
2023-04-15T06:28:37.220Z,10.70
2023-04-15T06:31:03.984Z,10.70
2023-04-15T06:33:30.700Z,10.70
2023-04-15T06:35:57.268Z,10.80
2023-04-15T06:38:23.958Z,10.80
2023-04-15T06:40:51.067Z,10.80
2023-04-15T06:43:17.637Z,10.80
2023-04-15T06:45:44.652Z,10.80
2023-04-15T06:48:11.813Z,10.80
2023-04-15T06:50:38.478Z,10.80
2023-04-15T06:53:05.088Z,10.80
2023-04-15T06:55:32.364Z,10.80
2023-04-15T06:57:58.964Z,10.80
2023-04-15T07:00:25.644Z,10.80
2023-04-15T07:02:52.843Z,10.80
2023-04-15T07:05:20.187Z,10.80
2023-04-15T07:07:46.924Z,10.80
2023-04-15T07:10:14.969Z,10.80
2023-04-15T07:12:41.927Z,10.90
2023-04-15T07:15:08.867Z,10.90
2023-04-15T07:17:35.561Z,10.90
2023-04-15T07:20:02.598Z,10.90
2023-04-15T07:22:29.339Z,10.90
2023-04-15T07:24:56.043Z,10.90
2023-04-15T07:27:22.670Z,10.90
2023-04-15T07:29:49.286Z,10.90
2023-04-15T07:32:16.471Z,10.90
2023-04-15T07:34:43.242Z,10.90
2023-04-15T07:37:10.026Z,11.00
2023-04-15T07:39:37.161Z,10.90
2023-04-15T07:42:04.279Z,11.00
2023-04-15T07:44:31.299Z,11.00
2023-04-15T07:46:58.543Z,11.00
2023-04-15T07:49:25.272Z,11.00
2023-04-15T07:51:52.018Z,11.00
2023-04-15T07:54:18.662Z,11.00
2023-04-15T07:56:47.885Z,11.00
2023-04-15T07:59:18.168Z,11.10
2023-04-15T08:01:45.140Z,11.10
2023-04-15T08:04:12.017Z,11.00
2023-04-15T08:06:40.086Z,11.10
2023-04-15T08:09:07.203Z,11.10
2023-04-15T08:11:33.977Z,11.10
2023-04-15T08:14:00.707Z,11.20
2023-04-15T08:16:28.134Z,11.20
2023-04-15T08:18:56.326Z,11.20
2023-04-15T08:21:23.018Z,11.20
2023-04-15T08:23:52.454Z,11.20
2023-04-15T08:26:20.208Z,11.30
2023-04-15T08:28:47.726Z,11.30
2023-04-15T08:31:15.561Z,11.30
2023-04-15T08:33:42.642Z,11.20
2023-04-15T08:36:09.716Z,11.30
2023-04-15T08:38:36.706Z,11.40
2023-04-15T08:41:10.468Z,11.40
2023-04-15T08:43:48.268Z,11.50
2023-04-15T08:46:15.735Z,11.50
2023-04-15T08:48:43.162Z,11.50
2023-04-15T08:51:11.028Z,11.60
2023-04-15T08:53:37.770Z,11.60
2023-04-15T08:56:07.565Z,11.60
2023-04-15T08:58:35.711Z,11.70
2023-04-15T09:01:02.573Z,11.70
2023-04-15T09:03:29.270Z,11.70
2023-04-15T09:05:57.422Z,11.70
2023-04-15T09:08:24.220Z,11.70
2023-04-15T09:10:51.359Z,11.80
2023-04-15T09:13:18.614Z,11.80
2023-04-15T09:15:45.849Z,11.90
2023-04-15T09:18:13.776Z,11.90
2023-04-15T09:20:42.460Z,11.90
2023-04-15T09:23:14.215Z,12.00
2023-04-15T09:25:44.752Z,12.20
2023-04-15T09:28:11.501Z,12.10
2023-04-15T09:30:38.389Z,12.10
2023-04-15T09:33:08.864Z,12.10
2023-04-15T09:35:36.758Z,12.30
2023-04-15T09:38:06.404Z,12.30
2023-04-15T09:40:37.177Z,12.20
2023-04-15T09:43:05.473Z,12.30
2023-04-15T09:45:33.974Z,12.50
2023-04-15T09:48:16.291Z,12.40
2023-04-15T09:50:44.017Z,12.40
2023-04-15T09:53:14.117Z,12.50
2023-04-15T09:55:45.585Z,12.70
2023-04-15T09:58:27.945Z,12.90
2023-04-15T10:00:57.286Z,13.00
2023-04-15T10:03:31.147Z,13.00
2023-04-15T10:05:59.546Z,13.20
2023-04-15T10:08:29.121Z,13.30
2023-04-15T10:10:56.275Z,13.30
2023-04-15T10:13:28.757Z,13.30
2023-04-15T10:16:12.605Z,13.50
2023-04-15T10:18:43.427Z,13.60
2023-04-15T10:21:10.271Z,13.70
2023-04-15T10:23:38.535Z,13.90
2023-04-15T10:26:06.241Z,14.10
2023-04-15T10:28:32.972Z,14.30
2023-04-15T10:31:00.019Z,14.30
2023-04-15T10:33:27.776Z,14.40
2023-04-15T10:35:56.001Z,14.60
2023-04-15T10:38:52.922Z,14.60
2023-04-15T10:41:23.807Z,14.80
2023-04-15T10:44:01.405Z,14.90
2023-04-15T10:46:47.345Z,15.00
2023-04-15T10:49:15.690Z,15.20
2023-04-15T10:51:45.125Z,15.30
2023-04-15T10:54:17.175Z,15.40
2023-04-15T10:56:45.499Z,15.50
2023-04-15T10:59:12.299Z,15.60
2023-04-15T11:02:00.253Z,15.70
2023-04-15T11:04:56.274Z,15.80
2023-04-15T11:07:36.286Z,16.00
2023-04-15T11:10:03.739Z,16.20
2023-04-15T11:12:37.250Z,16.20
2023-04-15T11:15:31.959Z,16.40
2023-04-15T11:18:00.388Z,16.50
2023-04-15T11:20:27.321Z,16.70
2023-04-15T11:23:13.711Z,16.50
2023-04-15T11:25:41.774Z,16.70
2023-04-15T11:28:08.561Z,16.80
2023-04-15T11:30:37.791Z,16.90
2023-04-15T11:33:06.684Z,17.00
2023-04-15T11:35:33.644Z,17.10
2023-04-15T11:38:08.752Z,17.10
2023-04-15T11:40:36.312Z,17.20
2023-04-15T11:43:10.842Z,17.20
2023-04-15T11:45:58.758Z,17.40
2023-04-15T11:48:36.558Z,17.40
2023-04-15T11:51:06.025Z,17.70
2023-04-15T11:53:46.191Z,17.70
2023-04-15T11:56:26.543Z,17.70
2023-04-15T11:58:57.143Z,17.90
2023-04-15T12:01:33.845Z,17.90
2023-04-15T12:04:01.803Z,17.90
2023-04-15T12:06:35.090Z,18.10
2023-04-15T12:09:07.447Z,18.10
2023-04-15T12:11:57.523Z,18.20
2023-04-15T12:14:29.501Z,18.40
2023-04-15T12:17:03.192Z,18.50
2023-04-15T12:19:36.690Z,18.60
2023-04-15T12:22:11.557Z,18.60
2023-04-15T12:24:39.422Z,18.60
2023-04-15T12:27:08.490Z,18.80
2023-04-15T12:29:37.046Z,18.80
2023-04-15T12:32:11.561Z,18.90
2023-04-15T12:34:49.714Z,19.00
2023-04-15T12:37:16.621Z,19.30
2023-04-15T12:39:46.008Z,19.30
2023-04-15T12:42:12.985Z,19.30
2023-04-15T12:44:40.413Z,19.60
2023-04-15T12:47:08.766Z,19.50
2023-04-15T12:49:35.725Z,19.60
2023-04-15T12:52:03.041Z,19.70
2023-04-15T12:54:30.857Z,19.60
2023-04-15T12:56:58.364Z,19.60
2023-04-15T12:59:25.602Z,19.80
2023-04-15T13:01:53.433Z,19.80
2023-04-15T13:04:21.346Z,20.00
2023-04-15T13:06:48.310Z,19.90
2023-04-15T13:09:15.816Z,20.20
2023-04-15T13:11:42.618Z,20.00
2023-04-15T13:14:11.524Z,20.20
2023-04-15T13:16:38.500Z,20.40
2023-04-15T13:19:05.560Z,20.50
2023-04-15T13:21:35.749Z,20.60
2023-04-15T13:24:03.376Z,20.50
2023-04-15T13:26:31.387Z,20.60
2023-04-15T13:28:57.974Z,20.60
2023-04-15T13:31:24.630Z,20.60
2023-04-15T13:33:51.318Z,20.80
2023-04-15T13:36:17.923Z,20.80
2023-04-15T13:38:44.503Z,20.80
2023-04-15T13:41:11.316Z,20.80
2023-04-15T13:43:37.992Z,21.00
2023-04-15T13:46:04.820Z,20.90
2023-04-15T13:48:31.759Z,21.10
2023-04-15T13:50:58.436Z,21.20
2023-04-15T13:53:28.213Z,21.20
2023-04-15T13:56:08.116Z,21.20
2023-04-15T13:58:34.806Z,21.20
2023-04-15T14:01:03.196Z,21.20
2023-04-15T14:03:31.781Z,21.20
2023-04-15T14:05:58.811Z,21.30
2023-04-15T14:08:25.907Z,21.30
2023-04-15T14:10:52.577Z,21.30
2023-04-15T14:13:19.783Z,21.30
2023-04-15T14:15:46.933Z,21.40
2023-04-15T14:18:13.706Z,21.30
2023-04-15T14:20:40.653Z,21.30
2023-04-15T14:23:07.667Z,21.30
2023-04-15T14:25:34.474Z,21.40
2023-04-15T14:28:02.360Z,21.40
2023-04-15T14:30:29.290Z,21.30
2023-04-15T14:32:56.119Z,21.30
2023-04-15T14:35:24.680Z,21.40
2023-04-15T14:37:51.610Z,21.40
2023-04-15T14:40:18.251Z,21.40
2023-04-15T14:42:44.926Z,21.30
2023-04-15T14:45:11.765Z,21.30
2023-04-15T14:47:38.456Z,21.30
2023-04-15T14:50:05.657Z,21.30
2023-04-15T14:52:38.934Z,21.30
2023-04-15T14:55:10.514Z,21.30
2023-04-15T14:57:41.479Z,21.20
2023-04-15T15:00:09.991Z,21.20
2023-04-15T15:02:39.645Z,20.80
2023-04-15T15:05:07.562Z,20.80
2023-04-15T15:07:34.366Z,21.00
2023-04-15T15:10:00.921Z,21.10
2023-04-15T15:12:27.529Z,21.10
2023-04-15T15:14:56.090Z,21.10
2023-04-15T15:17:22.836Z,21.00
2023-04-15T15:19:49.553Z,21.00
2023-04-15T15:22:16.199Z,21.00
2023-04-15T15:24:42.967Z,20.90
2023-04-15T15:27:10.069Z,20.90
2023-04-15T15:29:38.157Z,20.80
2023-04-15T15:32:04.959Z,20.80
2023-04-15T15:34:31.582Z,20.80
2023-04-15T15:37:00.447Z,20.70
2023-04-15T15:39:27.861Z,20.70
2023-04-15T15:41:54.701Z,20.70
2023-04-15T15:44:21.407Z,20.60
2023-04-15T15:46:48.040Z,20.60
2023-04-15T15:49:14.776Z,20.50
2023-04-15T15:51:41.479Z,20.50
2023-04-15T15:54:08.169Z,20.50
2023-04-15T15:56:35.230Z,20.40
2023-04-15T15:59:01.936Z,20.40
2023-04-15T16:01:28.743Z,20.40
2023-04-15T16:03:58.277Z,20.30
2023-04-15T16:06:25.086Z,20.30
2023-04-15T16:08:51.670Z,20.30
2023-04-15T16:11:18.282Z,20.20
2023-04-15T16:13:44.893Z,20.20
2023-04-15T16:16:11.651Z,20.10
2023-04-15T16:18:38.338Z,20.10
2023-04-15T16:21:05.700Z,20.00
2023-04-15T16:23:32.342Z,20.00
2023-04-15T16:25:59.035Z,19.90
2023-04-15T16:28:27.224Z,19.90
2023-04-15T16:30:54.819Z,19.80
2023-04-15T16:33:21.536Z,19.80
2023-04-15T16:35:48.222Z,19.70
2023-04-15T16:38:14.908Z,19.70
2023-04-15T16:40:41.475Z,19.60
2023-04-15T16:43:11.165Z,19.60
2023-04-15T16:45:38.040Z,19.50
2023-04-15T16:48:05.021Z,19.50
2023-04-15T16:50:31.836Z,19.40
2023-04-15T16:52:58.426Z,19.30
2023-04-15T16:55:25.428Z,19.30
2023-04-15T16:58:02.319Z,19.20
2023-04-15T17:00:31.268Z,19.10
2023-04-15T17:02:58.520Z,19.10
2023-04-15T17:05:27.622Z,19.00
2023-04-15T17:07:54.447Z,19.00
2023-04-15T17:10:21.127Z,18.90
2023-04-15T17:12:47.770Z,18.80
2023-04-15T17:15:14.435Z,18.70
2023-04-15T17:17:41.141Z,18.70
2023-04-15T17:20:08.120Z,18.60
2023-04-15T17:22:34.933Z,18.60
2023-04-15T17:25:01.564Z,18.50
2023-04-15T17:27:29.013Z,18.50
2023-04-15T17:29:56.164Z,18.40
2023-04-15T17:32:23.889Z,18.30
2023-04-15T17:34:51.390Z,18.30
2023-04-15T17:37:18.702Z,18.20
2023-04-15T17:39:45.594Z,18.10
2023-04-15T17:42:12.925Z,18.10
2023-04-15T17:44:39.989Z,18.00
2023-04-15T17:47:06.960Z,17.90
2023-04-15T17:49:34.346Z,17.90
2023-04-15T17:52:01.330Z,17.80
2023-04-15T17:54:28.147Z,17.80
2023-04-15T17:56:54.943Z,17.70
2023-04-15T17:59:21.646Z,17.70
2023-04-15T18:01:48.487Z,17.60
2023-04-15T18:04:15.801Z,17.50
2023-04-15T18:06:42.613Z,17.50
2023-04-15T18:09:09.225Z,17.40
2023-04-15T18:11:35.921Z,17.40
2023-04-15T18:14:04.245Z,17.30
2023-04-15T18:16:31.611Z,17.30
2023-04-15T18:19:00.120Z,17.20
2023-04-15T18:21:27.144Z,17.20
2023-04-15T18:23:53.900Z,17.10
2023-04-15T18:26:21.884Z,17.10
2023-04-15T18:28:48.603Z,17.00
2023-04-15T18:31:15.744Z,17.00
2023-04-15T18:33:42.481Z,16.90
2023-04-15T18:36:10.358Z,16.90
2023-04-15T18:38:37.065Z,16.80
2023-04-15T18:41:05.500Z,16.80
2023-04-15T18:43:32.513Z,16.70
2023-04-15T18:46:00.169Z,16.60
2023-04-15T18:48:27.087Z,16.60
2023-04-15T18:50:54.303Z,16.50
2023-04-15T18:53:21.605Z,16.50
2023-04-15T18:55:48.429Z,16.40
2023-04-15T18:58:15.689Z,16.40
2023-04-15T19:00:43.889Z,16.30
2023-04-15T19:03:11.689Z,16.30
2023-04-15T19:05:38.691Z,16.20
2023-04-15T19:08:05.532Z,16.20
2023-04-15T19:10:32.215Z,16.10
2023-04-15T19:12:58.872Z,16.10
2023-04-15T19:15:25.500Z,16.00
2023-04-15T19:17:52.156Z,15.90
2023-04-15T19:20:18.863Z,15.90
2023-04-15T19:22:46.278Z,15.80
2023-04-15T19:25:13.033Z,15.80
2023-04-15T19:27:39.717Z,15.70
2023-04-15T19:30:07.805Z,15.70
2023-04-15T19:32:36.283Z,15.60
2023-04-15T19:35:03.237Z,15.60
2023-04-15T19:37:30.202Z,15.50
2023-04-15T19:39:56.885Z,15.50
2023-04-15T19:42:23.484Z,15.40
2023-04-15T19:44:50.080Z,15.40
2023-04-15T19:47:16.820Z,15.30
2023-04-15T19:49:43.652Z,15.30
2023-04-15T19:52:10.298Z,15.30
2023-04-15T19:54:37.173Z,15.20
2023-04-15T19:57:03.839Z,15.20
2023-04-15T19:59:30.485Z,15.10
2023-04-15T20:01:57.368Z,15.10
2023-04-15T20:04:24.131Z,15.00
2023-04-15T20:06:50.957Z,15.00
2023-04-15T20:09:17.607Z,14.90
2023-04-15T20:12:46.927Z,14.90
2023-04-15T20:14:31.020Z,14.90
2023-04-15T20:16:57.643Z,14.80
2023-04-15T20:19:24.273Z,14.80
2023-04-15T20:21:52.519Z,14.80
2023-04-15T20:24:20.493Z,14.70
2023-04-15T20:26:47.369Z,14.70
2023-04-15T20:29:14.149Z,14.60
2023-04-15T20:31:40.861Z,14.60
2023-04-15T20:34:08.840Z,14.60
2023-04-15T20:36:37.365Z,14.50
2023-04-15T20:39:04.287Z,14.50
2023-04-15T20:41:31.245Z,14.40
2023-04-15T20:43:57.931Z,14.20
2023-04-15T20:46:26.621Z,14.20
2023-04-15T20:48:54.173Z,14.30
2023-04-15T20:51:23.501Z,14.20
2023-04-15T20:53:50.250Z,14.20
2023-04-15T20:56:16.957Z,14.20
2023-04-15T20:58:43.620Z,14.10
2023-04-15T21:01:10.445Z,14.10
2023-04-15T21:03:37.296Z,14.10
2023-04-15T21:06:04.048Z,14.00
2023-04-15T21:08:31.543Z,14.00
2023-04-15T21:10:58.533Z,14.00
2023-04-15T21:13:25.157Z,13.90
2023-04-15T21:15:54.300Z,13.90
2023-04-15T21:18:21.852Z,13.90
2023-04-15T21:20:58.497Z,13.80
2023-04-15T21:23:25.834Z,13.80
2023-04-15T21:25:52.467Z,13.80
2023-04-15T21:28:19.008Z,13.80
2023-04-15T21:30:46.225Z,13.70
2023-04-15T21:33:12.870Z,13.70
2023-04-15T21:35:39.752Z,13.70
2023-04-15T21:38:06.599Z,13.60
2023-04-15T21:40:33.335Z,13.60
2023-04-15T21:42:59.998Z,13.60
2023-04-15T21:45:27.057Z,13.60
2023-04-15T21:48:01.243Z,13.50
2023-04-15T21:50:36.492Z,13.50
2023-04-15T21:53:03.923Z,13.50
2023-04-15T21:55:30.581Z,13.40
2023-04-15T21:57:57.145Z,13.40
2023-04-15T22:00:24.317Z,13.40
2023-04-15T22:02:51.679Z,13.30
2023-04-15T22:05:18.503Z,13.30
2023-04-15T22:07:45.184Z,13.30
2023-04-15T22:10:11.876Z,13.30
2023-04-15T22:12:41.892Z,13.20
2023-04-15T22:15:09.006Z,13.20
2023-04-15T22:17:35.786Z,13.20
2023-04-15T22:20:02.849Z,13.20
2023-04-15T22:22:43.375Z,13.10
2023-04-15T22:25:11.427Z,13.10
2023-04-15T22:27:38.207Z,13.10
2023-04-15T22:30:05.659Z,13.10
2023-04-15T22:32:32.323Z,13.00
2023-04-15T22:34:58.999Z,13.00
2023-04-15T22:37:25.643Z,12.90
2023-04-15T22:39:52.266Z,12.90
2023-04-15T22:42:18.888Z,12.90
2023-04-15T22:44:45.690Z,12.90
2023-04-15T22:47:12.341Z,12.80
2023-04-15T22:49:39.518Z,12.80
2023-04-15T22:52:07.034Z,12.80
2023-04-15T22:54:34.562Z,12.70
2023-04-15T22:57:02.274Z,12.70
2023-04-15T22:59:28.956Z,12.70
2023-04-15T23:01:56.229Z,12.70
2023-04-15T23:04:27.546Z,12.60
2023-04-15T23:06:54.615Z,12.60
2023-04-15T23:09:21.518Z,12.60
2023-04-15T23:11:48.243Z,12.60
2023-04-15T23:14:14.853Z,12.60
2023-04-15T23:16:41.692Z,12.50
2023-04-15T23:19:08.885Z,12.50
2023-04-15T23:21:35.880Z,12.50
2023-04-15T23:24:02.559Z,12.40
2023-04-15T23:26:29.402Z,12.40
2023-04-15T23:28:56.157Z,12.40
2023-04-15T23:31:22.913Z,12.40
2023-04-15T23:33:49.560Z,12.30
2023-04-15T23:36:16.228Z,12.30
2023-04-15T23:38:42.841Z,12.30
2023-04-15T23:41:11.915Z,12.30
2023-04-15T23:43:38.676Z,12.30
2023-04-15T23:46:05.337Z,12.30
2023-04-15T23:48:31.998Z,12.20
2023-04-15T23:50:58.884Z,12.20
2023-04-15T23:53:25.548Z,12.20
2023-04-15T23:55:52.158Z,12.10
2023-04-15T23:58:18.826Z,12.10
